Time;durP1;ratioP1;P1;durP2;ratioP2;P2;SDS_P1;SDS_P2;PMS_P1;PMS_P2;Temp;Humidity;BMP_temperature;BMP_pressure;BME280_temperature;BME280_humidity;BME280_pressure;Samples;Min_cycle;Max_cycle;Signal;HPM_P1;HPM_P2
2023/01/19 00:00:52;;;;;;;9.20;2.80;;;0.80;99.90;;;;;;5089433;28;20695;-60
2023/01/19 00:03:19;;;;;;;6.90;2.53;;;0.80;99.90;;;;;;5090651;28;20095;-58
2023/01/19 00:05:46;;;;;;;11.80;2.63;;;0.80;99.90;;;;;;5075157;28;20051;-60
2023/01/19 00:08:16;;;;;;;12.25;4.10;;;0.80;99.90;;;;;;5086796;28;20426;-60
2023/01/19 00:10:45;;;;;;;8.82;2.33;;;0.80;99.90;;;;;;5070835;28;20040;-60
2023/01/19 00:13:13;;;;;;;10.55;4.50;;;0.80;99.90;;;;;;5078258;28;20047;-60
2023/01/19 00:15:40;;;;;;;11.70;2.67;;;0.70;99.90;;;;;;5086066;28;20040;-60
2023/01/19 00:18:07;;;;;;;7.43;2.67;;;0.70;99.90;;;;;;5069506;28;20450;-60
2023/01/19 00:20:37;;;;;;;8.63;2.80;;;0.70;99.90;;;;;;5086879;28;20050;-60
2023/01/19 00:23:06;;;;;;;7.40;2.40;;;0.70;99.90;;;;;;5074583;28;20056;-59
2023/01/19 00:25:33;;;;;;;7.97;3.22;;;0.60;99.90;;;;;;5088005;28;20040;-57
2023/01/19 00:28:00;;;;;;;4.85;2.60;;;0.70;99.90;;;;;;5083319;28;20127;-61
2023/01/19 00:30:28;;;;;;;7.90;3.38;;;0.60;99.90;;;;;;5072122;28;20490;-60
2023/01/19 00:32:55;;;;;;;8.23;3.92;;;0.60;99.90;;;;;;5089497;28;20123;-60
2023/01/19 00:35:22;;;;;;;5.68;2.50;;;0.60;99.90;;;;;;5088668;28;20098;-60
2023/01/19 00:37:49;;;;;;;6.57;2.60;;;0.60;99.90;;;;;;5089741;28;20058;-61
2023/01/19 00:40:16;;;;;;;8.75;2.63;;;0.60;99.90;;;;;;5093343;28;20050;-60
2023/01/19 00:42:43;;;;;;;9.40;2.85;;;0.50;99.90;;;;;;5093186;28;20079;-61
2023/01/19 00:45:12;;;;;;;8.10;2.20;;;0.50;99.90;;;;;;5093068;28;20127;-60
2023/01/19 00:47:39;;;;;;;12.45;2.47;;;0.50;99.90;;;;;;5087050;28;20076;-59
2023/01/19 00:50:08;;;;;;;10.00;3.50;;;0.50;99.90;;;;;;5090482;28;20056;-60
2023/01/19 00:52:34;;;;;;;9.73;2.75;;;0.60;99.90;;;;;;5084550;28;20123;-60
2023/01/19 00:55:01;;;;;;;4.35;1.83;;;0.50;99.90;;;;;;5093822;28;20101;-60
2023/01/19 00:57:28;;;;;;;12.57;3.00;;;0.50;99.90;;;;;;5093581;28;20123;-60
2023/01/19 00:59:55;;;;;;;4.97;2.03;;;0.60;99.90;;;;;;5094095;28;20047;-61
2023/01/19 01:02:22;;;;;;;5.70;2.55;;;0.50;99.90;;;;;;5093897;28;20044;-62
2023/01/19 01:04:53;;;;;;;8.48;2.47;;;0.50;99.90;;;;;;5093983;28;20052;-60
2023/01/19 01:07:21;;;;;;;7.90;2.40;;;0.40;99.90;;;;;;5093026;28;20072;-58
2023/01/19 01:09:48;;;;;;;8.23;2.20;;;0.50;99.90;;;;;;5085810;28;20063;-60
2023/01/19 01:12:14;;;;;;;9.18;3.15;;;0.40;99.90;;;;;;5092331;28;20626;-61
2023/01/19 01:14:41;;;;;;;9.38;2.65;;;0.50;99.90;;;;;;5092590;28;20048;-62
2023/01/19 01:17:10;;;;;;;6.07;2.22;;;0.40;99.90;;;;;;5056508;28;20048;-61
2023/01/19 01:19:37;;;;;;;4.97;2.17;;;0.40;99.90;;;;;;5092374;28;20043;-62
2023/01/19 01:22:04;;;;;;;6.93;2.22;;;0.40;99.90;;;;;;5092461;28;20050;-62
2023/01/19 01:24:31;;;;;;;6.55;2.60;;;0.50;99.90;;;;;;5092950;28;20442;-59
2023/01/19 01:29:34;;;;;;;7.47;2.22;;;0.40;99.90;;;;;;5034784;22;20056;-70
2023/01/19 01:32:01;;;;;;;7.30;2.08;;;0.40;99.90;;;;;;5014403;28;20045;-70
2023/01/19 01:34:28;;;;;;;8.35;2.35;;;0.40;99.90;;;;;;5025012;28;20049;-71
2023/01/19 01:36:55;;;;;;;7.53;2.40;;;0.40;99.90;;;;;;5030538;28;20049;-70
2023/01/19 01:39:21;;;;;;;6.72;2.47;;;0.30;99.90;;;;;;5020546;28;20049;-71
2023/01/19 01:41:48;;;;;;;8.95;2.47;;;0.30;99.90;;;;;;5027024;28;20049;-69
2023/01/19 01:44:48;;;;;;;11.52;3.25;;;0.30;99.90;;;;;;5026074;28;20132;-70
2023/01/19 01:47:35;;;;;;;10.57;2.63;;;0.30;99.90;;;;;;5011325;28;20049;-69
2023/01/19 01:50:09;;;;;;;11.13;2.92;;;0.30;99.90;;;;;;5019174;28;20252;-70
2023/01/19 01:52:39;;;;;;;6.35;2.17;;;0.30;99.90;;;;;;5012704;28;20140;-69
2023/01/19 01:55:06;;;;;;;7.13;1.92;;;0.30;99.90;;;;;;5024187;28;20042;-71
2023/01/19 01:57:37;;;;;;;11.57;2.08;;;0.30;99.90;;;;;;5014172;28;20045;-70
2023/01/19 02:00:05;;;;;;;5.43;2.20;;;0.30;99.90;;;;;;5025551;28;20382;-70
2023/01/19 02:02:49;;;;;;;7.00;2.58;;;0.30;99.90;;;;;;5028612;28;20133;-70
2023/01/19 02:05:26;;;;;;;6.93;2.65;;;0.30;99.90;;;;;;5025226;28;20052;-71
2023/01/19 02:13:36;;;;;;;8.73;2.55;;;0.30;99.90;;;;;;4994353;28;20054;-71
2023/01/19 02:16:05;;;;;;;9.63;2.33;;;0.30;99.90;;;;;;5024823;28;20088;-70
2023/01/19 02:18:32;;;;;;;11.13;2.40;;;0.30;99.90;;;;;;5028095;28;20051;-66
2023/01/19 02:21:06;;;;;;;7.65;2.33;;;0.30;99.90;;;;;;5007525;28;20290;-70
2023/01/19 02:23:45;;;;;;;4.45;1.92;;;0.30;99.90;;;;;;5010171;28;20050;-69
2023/01/19 02:26:14;;;;;;;6.80;2.13;;;0.30;99.90;;;;;;4329676;28;10000756;-69
2023/01/19 02:28:43;;;;;;;5.32;1.92;;;0.30;99.90;;;;;;5005345;28;20099;-70
2023/01/19 02:31:10;;;;;;;5.70;2.67;;;0.30;99.90;;;;;;5023588;28;20045;-69
2023/01/19 02:33:37;;;;;;;8.57;2.78;;;0.30;99.90;;;;;;5012574;28;20076;-70
2023/01/19 02:36:06;;;;;;;5.97;2.47;;;0.30;99.90;;;;;;5012398;28;20496;-70
2023/01/19 02:38:33;;;;;;;8.55;2.13;;;0.30;99.90;;;;;;5023236;28;20119;-69
2023/01/19 02:41:00;;;;;;;4.60;2.05;;;0.30;99.90;;;;;;5007521;28;20128;-72
2023/01/19 02:43:27;;;;;;;10.25;1.98;;;0.50;99.90;;;;;;5014639;28;20133;-71
2023/01/19 02:45:54;;;;;;;3.33;1.92;;;0.30;99.90;;;;;;4995500;28;20228;-71
2023/01/19 02:48:21;;;;;;;9.60;2.20;;;0.30;99.90;;;;;;5019273;28;20045;-71
2023/01/19 02:50:53;;;;;;;6.57;2.53;;;0.30;99.90;;;;;;5023972;28;20048;-70
2023/01/19 02:53:23;;;;;;;7.10;2.47;;;0.30;99.90;;;;;;5016556;28;20057;-71
2023/01/19 02:56:13;;;;;;;5.22;1.92;;;0.30;99.90;;;;;;5027106;28;20060;-70
2023/01/19 02:58:46;;;;;;;9.32;2.22;;;0.20;99.90;;;;;;5021509;28;20072;-71
2023/01/19 03:01:36;;;;;;;6.22;2.05;;;0.20;99.90;;;;;;5025782;28;20496;-71
2023/01/19 03:04:10;;;;;;;4.82;2.08;;;0.20;99.90;;;;;;5019541;28;20092;-71
2023/01/19 03:06:51;;;;;;;4.97;1.90;;;0.20;99.90;;;;;;5024057;28;20041;-70
2023/01/19 03:09:32;;;;;;;5.13;1.75;;;0.10;99.90;;;;;;5020853;28;20049;-70
2023/01/19 03:12:21;;;;;;;3.78;1.77;;;0.10;99.90;;;;;;4999917;28;20077;-66
2023/01/19 03:14:48;;;;;;;5.53;2.05;;;0.00;99.90;;;;;;5007329;28;20076;-69
2023/01/19 03:17:16;;;;;;;8.20;2.70;;;0.00;99.90;;;;;;5024102;28;20567;-70
2023/01/19 03:19:43;;;;;;;3.60;1.65;;;0.00;99.90;;;;;;5027592;28;20046;-70
2023/01/19 03:22:14;;;;;;;7.72;2.15;;;0.00;99.90;;;;;;5023122;28;20046;-69
2023/01/19 03:24:45;;;;;;;6.20;2.10;;;0.00;99.90;;;;;;5016589;28;20045;-70
2023/01/19 03:27:32;;;;;;;3.40;1.58;;;-0.10;99.90;;;;;;5011829;28;20091;-70
2023/01/19 03:30:14;;;;;;;4.63;2.00;;;-0.20;99.90;;;;;;5020048;28;20092;-70
2023/01/19 03:32:50;;;;;;;7.72;3.08;;;-0.20;99.90;;;;;;5024193;28;20045;-71
2023/01/19 03:35:18;;;;;;;2.17;1.35;;;-0.20;99.90;;;;;;5013239;28;20218;-70
2023/01/19 03:37:45;;;;;;;3.92;1.52;;;-0.20;99.90;;;;;;5015864;28;20434;-69
2023/01/19 03:40:12;;;;;;;11.98;2.78;;;-0.30;99.90;;;;;;5018435;28;20041;-70
2023/01/19 03:42:39;;;;;;;6.13;2.63;;;-0.30;99.90;;;;;;5011452;28;20072;-70
2023/01/19 03:45:06;;;;;;;5.32;2.28;;;-0.30;99.90;;;;;;5026758;28;20046;-70
2023/01/19 03:47:33;;;;;;;5.05;1.90;;;-0.30;99.90;;;;;;5024315;28;20049;-70
2023/01/19 03:50:01;;;;;;;7.75;2.67;;;-0.40;99.90;;;;;;5018241;28;20050;-70
2023/01/19 03:52:28;;;;;;;4.50;2.65;;;-0.30;99.90;;;;;;4993005;28;20136;-70
2023/01/19 03:54:55;;;;;;;2.30;1.50;;;-0.30;99.90;;;;;;5022634;28;20499;-70
2023/01/19 03:57:22;;;;;;;6.53;2.17;;;-0.30;99.90;;;;;;5042327;28;20357;-70
2023/01/19 03:59:49;;;;;;;6.05;2.00;;;-0.30;99.90;;;;;;5021136;28;20509;-70
2023/01/19 04:02:16;;;;;;;7.05;2.10;;;-0.30;99.90;;;;;;5008121;28;20050;-69
2023/01/19 04:04:43;;;;;;;8.73;2.75;;;-0.30;99.90;;;;;;5018803;28;20072;-70
2023/01/19 04:07:10;;;;;;;5.90;1.70;;;-0.30;99.90;;;;;;5027799;28;20046;-70
2023/01/19 04:09:37;;;;;;;8.35;2.17;;;-0.40;99.90;;;;;;5023534;28;20483;-70
2023/01/19 04:12:03;;;;;;;7.72;2.00;;;-0.40;99.90;;;;;;5018824;28;20476;-70
2023/01/19 04:14:30;;;;;;;6.75;2.00;;;-0.30;99.90;;;;;;5026125;28;20105;-69
2023/01/19 04:16:57;;;;;;;9.98;2.67;;;-0.30;99.90;;;;;;5022508;28;20038;-70
2023/01/19 04:19:24;;;;;;;4.90;2.15;;;-0.30;99.90;;;;;;5025050;28;20045;-69
2023/01/19 04:21:50;;;;;;;8.32;2.05;;;-0.40;99.90;;;;;;5016244;28;20057;-71
2023/01/19 04:24:17;;;;;;;12.20;2.47;;;-0.40;99.90;;;;;;5014212;28;20046;-72
2023/01/19 04:26:44;;;;;;;3.83;2.22;;;-0.30;99.90;;;;;;5019587;28;20054;-70
2023/01/19 04:29:12;;;;;;;6.30;2.22;;;-0.30;99.90;;;;;;5025088;28;20152;-69
2023/01/19 04:31:39;;;;;;;5.75;2.28;;;-0.80;99.90;;;;;;5017483;28;20056;-70
2023/01/19 04:34:06;;;;;;;18.08;3.40;;;-0.30;99.90;;;;;;5040402;28;20041;-70
2023/01/19 04:36:32;;;;;;;6.07;1.92;;;-0.30;99.90;;;;;;5025407;28;20522;-71
2023/01/19 04:38:59;;;;;;;4.65;2.05;;;-0.20;99.90;;;;;;5027101;28;20045;-70
2023/01/19 04:41:26;;;;;;;4.70;1.63;;;-0.30;99.90;;;;;;5016495;28;20049;-70
2023/01/19 04:43:53;;;;;;;6.03;2.17;;;-0.20;99.90;;;;;;5027927;28;20045;-70
2023/01/19 04:46:19;;;;;;;8.15;3.80;;;-0.30;99.90;;;;;;5020292;28;20056;-70
2023/01/19 04:48:46;;;;;;;7.60;2.88;;;-0.30;99.90;;;;;;5007531;28;20149;-70
2023/01/19 04:51:13;;;;;;;3.50;2.58;;;-0.30;99.90;;;;;;5011609;28;20050;-70
2023/01/19 04:53:39;;;;;;;12.00;2.47;;;-0.30;99.90;;;;;;5027464;28;20575;-70
2023/01/19 04:56:06;;;;;;;6.97;4.03;;;-0.30;99.90;;;;;;5024108;28;20505;-70
2023/01/19 04:58:33;;;;;;;8.40;2.22;;;-0.30;99.90;;;;;;5028932;28;20068;-70
2023/01/19 05:01:00;;;;;;;6.30;2.15;;;-0.40;99.90;;;;;;5021212;28;20046;-70
2023/01/19 05:03:26;;;;;;;8.40;2.03;;;-0.30;99.90;;;;;;5024086;28;20236;-70
2023/01/19 05:05:53;;;;;;;7.20;2.20;;;-0.30;99.90;;;;;;5024351;28;20325;-70
2023/01/19 05:08:20;;;;;;;3.05;1.40;;;-0.30;99.90;;;;;;5015221;28;20137;-70
2023/01/19 05:10:47;;;;;;;6.82;2.20;;;-0.10;99.90;;;;;;5011621;28;20061;-69
2023/01/19 05:13:13;;;;;;;5.75;2.05;;;-0.30;99.90;;;;;;5018820;28;20534;-69
2023/01/19 05:15:40;;;;;;;7.90;2.45;;;-0.30;99.90;;;;;;5026163;28;20420;-69
2023/01/19 05:18:07;;;;;;;3.88;1.75;;;-0.30;99.90;;;;;;5016010;28;20049;-69
2023/01/19 05:20:33;;;;;;;5.68;2.45;;;-0.30;99.90;;;;;;5025191;28;20491;-69
2023/01/19 05:23:00;;;;;;;8.82;3.50;;;-0.30;99.90;;;;;;5018360;28;20052;-68
2023/01/19 05:25:27;;;;;;;6.50;2.70;;;-0.30;99.90;;;;;;5010624;28;20050;-70
2023/01/19 05:27:54;;;;;;;6.70;2.22;;;-0.30;99.90;;;;;;5018325;28;20496;-69
2023/01/19 05:30:21;;;;;;;5.78;1.90;;;-0.20;99.90;;;;;;5030896;28;20049;-70
2023/01/19 05:32:48;;;;;;;3.72;1.83;;;-0.30;99.90;;;;;;5024940;28;20418;-69
2023/01/19 05:35:15;;;;;;;8.20;2.28;;;-0.30;99.90;;;;;;5011318;28;20046;-69
2023/01/19 05:37:50;;;;;;;3.83;1.75;;;-0.30;99.90;;;;;;5015019;28;20077;-69
2023/01/19 05:40:17;;;;;;;8.70;2.33;;;-0.30;99.90;;;;;;5030118;28;20562;-69
2023/01/19 05:42:44;;;;;;;5.35;2.10;;;-0.30;99.90;;;;;;5026203;28;20049;-68
2023/01/19 05:45:11;;;;;;;5.82;2.67;;;-0.30;99.90;;;;;;5029975;28;20054;-68
2023/01/19 05:47:38;;;;;;;15.35;2.78;;;-0.20;99.90;;;;;;5026142;28;20226;-69
2023/01/19 05:50:06;;;;;;;6.88;2.30;;;-0.30;99.90;;;;;;5014760;28;20161;-71
2023/01/19 05:52:32;;;;;;;15.85;2.15;;;-0.30;99.90;;;;;;5014388;28;20046;-69
2023/01/19 05:54:59;;;;;;;7.75;2.60;;;-0.30;99.90;;;;;;5024447;28;20072;-70
2023/01/19 05:57:26;;;;;;;7.60;2.47;;;-0.30;99.90;;;;;;5024866;28;20052;-69
2023/01/19 05:59:52;;;;;;;6.28;1.90;;;-0.20;99.90;;;;;;5019068;28;20045;-69
2023/01/19 06:02:20;;;;;;;3.58;2.00;;;-0.30;99.90;;;;;;5014475;28;20041;-69
2023/01/19 06:04:47;;;;;;;7.50;2.75;;;-0.30;99.90;;;;;;5020060;28;20132;-70
2023/01/19 06:07:13;;;;;;;5.72;2.50;;;-0.30;99.90;;;;;;5042539;28;20052;-69
2023/01/19 06:09:40;;;;;;;4.00;2.10;;;-0.30;99.90;;;;;;5020481;28;20054;-70
2023/01/19 06:12:07;;;;;;;5.35;2.50;;;-0.30;99.90;;;;;;5010171;28;20518;-71
2023/01/19 06:14:35;;;;;;;8.25;2.08;;;-0.30;99.90;;;;;;5019077;28;20430;-70
2023/01/19 06:17:04;;;;;;;11.25;2.40;;;-0.30;99.90;;;;;;5029591;28;20136;-71
2023/01/19 06:19:32;;;;;;;5.75;2.00;;;-0.30;99.90;;;;;;5017426;28;20049;-71
2023/01/19 06:21:58;;;;;;;4.88;2.33;;;-0.30;99.90;;;;;;5029628;28;20519;-70
2023/01/19 06:24:26;;;;;;;11.38;3.10;;;-0.30;99.90;;;;;;5024128;28;20046;-70
2023/01/19 06:26:53;;;;;;;6.25;3.20;;;-0.30;99.90;;;;;;5009650;28;20115;-70
2023/01/19 06:29:20;;;;;;;7.70;2.92;;;-0.30;99.90;;;;;;5013022;28;20057;-71
2023/01/19 06:31:47;;;;;;;6.93;2.03;;;-0.30;99.90;;;;;;5029277;28;20583;-70
2023/01/19 06:34:14;;;;;;;7.35;3.10;;;-0.30;99.90;;;;;;5025258;28;20451;-69
2023/01/19 06:36:41;;;;;;;5.93;2.67;;;-0.40;99.90;;;;;;5012330;28;20135;-69
2023/01/19 06:39:08;;;;;;;4.55;2.50;;;-0.40;99.90;;;;;;5013529;28;20434;-69
2023/01/19 06:41:35;;;;;;;7.95;2.53;;;-0.40;99.90;;;;;;5023850;28;20052;-69
2023/01/19 06:44:02;;;;;;;7.68;2.75;;;-0.50;99.90;;;;;;5024647;28;20244;-71
2023/01/19 06:46:29;;;;;;;5.55;2.45;;;-0.50;99.90;;;;;;5024789;28;20144;-70
2023/01/19 06:48:55;;;;;;;5.35;2.50;;;-0.50;99.90;;;;;;5042005;28;20131;-70
2023/01/19 06:51:22;;;;;;;6.75;3.63;;;-0.50;99.90;;;;;;5029551;28;20056;-69
2023/01/19 06:53:49;;;;;;;8.95;2.75;;;-0.20;99.90;;;;;;5026311;28;20056;-69
2023/01/19 06:56:16;;;;;;;11.20;4.32;;;-0.40;99.90;;;;;;5017477;28;20053;-68
2023/01/19 06:58:45;;;;;;;9.15;3.00;;;-0.40;99.90;;;;;;5014729;28;20068;-70
2023/01/19 07:01:12;;;;;;;8.52;3.38;;;-0.40;99.90;;;;;;5028787;28;20229;-70
2023/01/19 07:03:38;;;;;;;7.10;2.58;;;-0.40;99.90;;;;;;5027687;28;20416;-69
2023/01/19 07:06:06;;;;;;;7.13;2.75;;;-0.40;99.90;;;;;;5027137;28;20364;-70
2023/01/19 07:08:33;;;;;;;8.10;3.45;;;-0.40;99.90;;;;;;5028813;28;20125;-71
2023/01/19 07:11:07;;;;;;;7.75;4.80;;;-0.30;99.90;;;;;;5023597;28;20317;-70
2023/01/19 07:13:54;;;;;;;6.80;2.53;;;-0.30;99.90;;;;;;5008088;28;20050;-70
2023/01/19 07:16:21;;;;;;;10.05;3.70;;;-0.30;99.90;;;;;;5023848;28;20060;-71
2023/01/19 07:18:49;;;;;;;7.60;3.67;;;-0.30;99.90;;;;;;5027511;28;20053;-71
2023/01/19 07:21:15;;;;;;;13.88;3.10;;;-0.30;99.90;;;;;;5022748;28;20049;-71
2023/01/19 07:23:42;;;;;;;7.43;3.28;;;-0.30;99.90;;;;;;5007682;28;20054;-71
2023/01/19 07:26:09;;;;;;;7.32;3.72;;;-0.30;99.90;;;;;;5015577;28;20049;-72
2023/01/19 07:28:36;;;;;;;10.10;3.40;;;-0.30;99.90;;;;;;5022199;28;20053;-71
2023/01/19 07:31:02;;;;;;;9.93;3.10;;;-0.10;99.90;;;;;;5025375;28;20046;-71
2023/01/19 07:33:29;;;;;;;11.32;4.43;;;-0.20;99.90;;;;;;5026332;28;20088;-71
2023/01/19 07:35:56;;;;;;;11.25;5.85;;;-0.40;99.90;;;;;;5022785;28;20051;-72
2023/01/19 07:38:23;;;;;;;8.70;3.88;;;-0.40;99.90;;;;;;5013637;28;20603;-67
2023/01/19 07:40:50;;;;;;;12.43;4.15;;;-0.40;99.90;;;;;;5010812;28;20119;-67
2023/01/19 07:43:17;;;;;;;11.05;4.30;;;-0.30;99.90;;;;;;5018221;28;20409;-66
2023/01/19 07:45:44;;;;;;;10.20;3.72;;;-0.30;99.90;;;;;;5021671;28;20045;-67
2023/01/19 07:48:11;;;;;;;6.45;3.28;;;-0.30;99.90;;;;;;5016279;28;20103;-68
2023/01/19 07:50:37;;;;;;;8.90;3.22;;;-0.40;99.90;;;;;;5025942;28;20042;-69
2023/01/19 07:53:07;;;;;;;12.90;3.40;;;-0.40;99.90;;;;;;5014502;28;20280;-68
2023/01/19 07:55:34;;;;;;;5.10;3.03;;;-0.40;99.90;;;;;;5025109;28;20400;-69
2023/01/19 07:58:05;;;;;;;8.80;3.67;;;-0.50;99.90;;;;;;5029306;28;20045;-69
2023/01/19 08:00:35;;;;;;;7.32;4.07;;;-0.50;99.90;;;;;;5006702;28;20069;-69
2023/01/19 08:03:02;;;;;;;7.20;2.90;;;-0.50;99.90;;;;;;5019968;28;20108;-69
2023/01/19 08:05:31;;;;;;;8.85;3.60;;;-0.50;99.90;;;;;;4989541;28;20072;-68
2023/01/19 08:07:57;;;;;;;10.73;4.00;;;-0.50;99.90;;;;;;5012129;28;20056;-69
2023/01/19 08:10:25;;;;;;;13.20;2.92;;;-0.40;99.90;;;;;;5026878;28;20145;-67
2023/01/19 08:12:53;;;;;;;12.70;3.40;;;-0.40;99.90;;;;;;5022390;28;20049;-68
2023/01/19 08:15:22;;;;;;;5.63;3.08;;;-0.40;99.90;;;;;;5013432;28;20042;-68
2023/01/19 08:17:59;;;;;;;6.28;3.10;;;-0.40;99.90;;;;;;5023176;28;20045;-68
2023/01/19 08:20:27;;;;;;;6.03;3.83;;;-0.40;99.90;;;;;;5007736;28;20053;-68
2023/01/19 08:23:01;;;;;;;14.27;4.40;;;0.10;99.90;;;;;;5017126;28;20136;-69
2023/01/19 08:25:41;;;;;;;9.73;3.30;;;-0.30;99.90;;;;;;5008810;28;20046;-68
2023/01/19 08:28:08;;;;;;;8.23;3.03;;;-0.30;99.90;;;;;;5009727;28;20076;-68
2023/01/19 08:30:35;;;;;;;10.48;3.55;;;-0.30;99.90;;;;;;5024729;28;20054;-68
2023/01/19 08:33:06;;;;;;;10.48;3.47;;;-0.30;99.90;;;;;;5023137;28;20046;-68
2023/01/19 08:35:41;;;;;;;8.80;3.40;;;-0.30;99.90;;;;;;5010985;28;20069;-68
2023/01/19 08:38:08;;;;;;;10.07;3.75;;;-0.40;99.90;;;;;;5014269;28;20077;-68
2023/01/19 08:40:37;;;;;;;10.60;3.50;;;-0.40;99.90;;;;;;5011772;28;20124;-68
2023/01/19 08:43:08;;;;;;;17.98;4.68;;;-0.30;99.90;;;;;;5012300;28;20045;-68
2023/01/19 08:45:36;;;;;;;13.45;3.88;;;-0.40;99.90;;;;;;5023276;28;20059;-67
2023/01/19 08:48:05;;;;;;;9.82;3.83;;;-0.40;99.90;;;;;;5022237;28;20132;-67
2023/01/19 08:50:32;;;;;;;13.88;3.70;;;-0.40;99.90;;;;;;5015750;28;20052;-70
2023/01/19 08:52:59;;;;;;;11.02;4.05;;;-0.40;99.90;;;;;;5021782;28;20116;-69
2023/01/19 08:55:27;;;;;;;18.17;3.92;;;-0.40;99.90;;;;;;5013553;28;20136;-69
2023/01/19 08:58:02;;;;;;;8.93;3.83;;;-0.30;99.90;;;;;;5022379;28;20042;-69
2023/01/19 09:00:32;;;;;;;16.98;3.97;;;-0.30;99.90;;;;;;5016229;28;20046;-69
2023/01/19 09:03:01;;;;;;;7.07;2.88;;;-0.20;99.90;;;;;;5024687;28;20045;-68
2023/01/19 09:05:34;;;;;;;7.40;4.40;;;-0.20;99.90;;;;;;5016901;28;20049;-69
2023/01/19 09:08:02;;;;;;;12.20;4.28;;;-0.20;99.90;;;;;;5026217;28;20049;-68
2023/01/19 09:10:34;;;;;;;16.00;4.13;;;-0.20;99.90;;;;;;5016652;28;20076;-69
2023/01/19 09:13:03;;;;;;;7.00;3.70;;;-0.20;99.90;;;;;;5027574;28;20045;-70
2023/01/19 09:15:32;;;;;;;6.50;3.38;;;-0.20;99.90;;;;;;5019914;28;20077;-67
2023/01/19 09:17:59;;;;;;;7.45;3.72;;;-0.10;99.90;;;;;;5006862;28;20057;-68
2023/01/19 09:20:29;;;;;;;7.57;3.83;;;-0.20;99.90;;;;;;5021512;28;20057;-69
2023/01/19 09:22:57;;;;;;;6.63;2.92;;;-0.10;99.90;;;;;;5007773;28;20141;-69
2023/01/19 09:25:24;;;;;;;12.68;4.72;;;-0.10;99.90;;;;;;5019396;28;20729;-70
2023/01/19 09:27:51;;;;;;;7.18;3.20;;;-0.10;99.90;;;;;;5008448;28;20572;-69
2023/01/19 09:30:20;;;;;;;9.45;5.03;;;0.00;99.90;;;;;;5032813;28;20055;-72
2023/01/19 09:32:47;;;;;;;14.85;3.97;;;0.10;99.90;;;;;;5031894;28;20056;-69
2023/01/19 09:35:14;;;;;;;10.77;2.88;;;0.20;99.90;;;;;;5022271;28;20084;-68
2023/01/19 09:37:45;;;;;;;5.32;2.95;;;0.20;99.90;;;;;;5027603;28;20148;-69
2023/01/19 09:40:12;;;;;;;7.75;2.83;;;0.30;99.90;;;;;;5021257;28;20088;-69
2023/01/19 09:42:43;;;;;;;10.07;2.92;;;0.30;99.90;;;;;;5017883;28;20049;-69
2023/01/19 09:45:18;;;;;;;6.32;2.85;;;0.40;99.90;;;;;;5030134;28;20318;-69
2023/01/19 09:47:45;;;;;;;10.40;3.72;;;0.40;99.90;;;;;;5013354;28;20149;-70
2023/01/19 09:50:25;;;;;;;13.73;4.45;;;0.50;99.90;;;;;;5024381;28;20042;-70
2023/01/19 09:53:00;;;;;;;7.88;3.75;;;0.60;99.90;;;;;;5007994;28;20679;-69
2023/01/19 09:55:27;;;;;;;5.65;3.88;;;0.70;99.90;;;;;;5023800;28;20108;-71
2023/01/19 09:57:54;;;;;;;8.88;3.70;;;0.70;99.90;;;;;;5005104;28;20521;-70
2023/01/19 10:00:23;;;;;;;6.93;3.20;;;0.70;99.90;;;;;;5026865;28;20046;-70
2023/01/19 10:03:19;;;;;;;5.30;3.63;;;0.80;99.90;;;;;;5004064;28;20144;-69
2023/01/19 10:05:57;;;;;;;7.03;3.40;;;0.80;99.90;;;;;;5023728;28;20508;-69
2023/01/19 10:08:27;;;;;;;9.85;3.08;;;0.90;99.90;;;;;;5021028;28;20076;-69
2023/01/19 10:10:55;;;;;;;6.20;2.78;;;1.00;99.90;;;;;;5020900;28;20052;-69
2023/01/19 10:13:41;;;;;;;9.18;4.40;;;1.10;99.90;;;;;;5020986;28;20068;-69
2023/01/19 10:16:20;;;;;;;9.75;3.38;;;1.10;99.90;;;;;;5019214;28;20585;-69
2023/01/19 10:18:50;;;;;;;11.77;3.95;;;1.20;99.90;;;;;;5026240;28;20048;-73
2023/01/19 10:21:21;;;;;;;9.77;3.13;;;1.20;99.90;;;;;;5023121;28;20045;-69
2023/01/19 10:24:05;;;;;;;11.48;3.42;;;1.30;99.90;;;;;;5022744;28;20181;-69
2023/01/19 10:26:38;;;;;;;14.93;4.28;;;1.30;99.90;;;;;;5017675;28;20108;-69
2023/01/19 10:29:25;;;;;;;11.25;3.65;;;1.40;99.90;;;;;;5037604;28;20124;-69
2023/01/19 10:32:16;;;;;;;11.07;3.83;;;1.50;99.90;;;;;;5024137;28;20053;-68
2023/01/19 10:34:43;;;;;;;10.82;3.88;;;1.60;99.90;;;;;;5016641;28;20471;-70
2023/01/19 10:37:15;;;;;;;10.30;3.78;;;1.60;99.90;;;;;;5021363;28;20122;-70
2023/01/19 10:39:47;;;;;;;8.20;3.17;;;1.70;99.90;;;;;;5024526;28;20143;-69
2023/01/19 10:42:15;;;;;;;14.07;3.45;;;1.70;99.90;;;;;;5025201;28;20077;-67
2023/01/19 10:44:44;;;;;;;12.88;3.33;;;1.80;99.90;;;;;;5024797;28;20041;-69
2023/01/19 10:47:16;;;;;;;11.00;3.15;;;1.90;99.90;;;;;;5022779;28;20055;-68
2023/01/19 10:49:43;;;;;;;8.88;3.60;;;1.90;99.90;;;;;;5009465;28;20140;-69
2023/01/19 10:52:48;;;;;;;13.38;3.85;;;2.00;99.90;;;;;;5025328;28;20049;-68
2023/01/19 10:55:29;;;;;;;5.75;2.83;;;2.10;99.90;;;;;;4985344;28;20065;-68
2023/01/19 10:57:56;;;;;;;5.22;2.70;;;2.10;99.90;;;;;;5008722;28;20534;-68
2023/01/19 11:00:39;;;;;;;8.68;3.78;;;2.20;99.90;;;;;;5025204;28;20124;-68
2023/01/19 11:03:26;;;;;;;10.03;2.83;;;2.30;99.90;;;;;;5023969;28;20488;-68
2023/01/19 11:05:57;;;;;;;17.55;3.50;;;2.30;99.90;;;;;;5042175;28;20049;-68
2023/01/19 11:08:29;;;;;;;13.35;2.47;;;2.40;99.90;;;;;;5007347;28;20045;-67
2023/01/19 11:11:03;;;;;;;8.85;2.75;;;2.40;99.90;;;;;;5026702;28;20416;-68
2023/01/19 11:13:30;;;;;;;6.05;2.58;;;2.50;99.90;;;;;;5017153;28;20049;-68
2023/01/19 11:16:05;;;;;;;10.43;3.38;;;2.60;99.90;;;;;;5023788;28;20125;-69
2023/01/19 11:18:37;;;;;;;31.42;4.60;;;2.60;99.90;;;;;;5024563;28;20052;-68
2023/01/19 11:21:11;;;;;;;10.23;3.00;;;2.80;99.90;;;;;;5026740;28;20049;-69
2023/01/19 11:23:42;;;;;;;5.25;2.08;;;2.70;99.90;;;;;;5007551;28;20077;-70
2023/01/19 11:26:42;;;;;;;8.13;2.10;;;2.70;99.90;;;;;;5024077;28;20144;-69
2023/01/19 11:29:24;;;;;;;7.82;2.10;;;2.80;99.90;;;;;;5004584;28;20496;-69
2023/01/19 11:31:52;;;;;;;6.60;1.90;;;2.80;99.90;;;;;;4676665;28;10000344;-70
2023/01/19 11:34:30;;;;;;;6.88;2.03;;;2.90;99.90;;;;;;5021027;28;20053;-69
2023/01/19 11:37:20;;;;;;;3.88;2.05;;;3.00;99.90;;;;;;5025657;28;20045;-69
2023/01/19 11:40:07;;;;;;;5.30;1.65;;;3.00;99.90;;;;;;5015363;28;20493;-69
2023/01/19 11:42:36;;;;;;;9.57;1.80;;;3.10;99.90;;;;;;5013222;28;20229;-69
2023/01/19 11:45:13;;;;;;;6.85;2.00;;;3.20;99.90;;;;;;5021231;28;20049;-69
2023/01/19 11:47:43;;;;;;;10.98;2.78;;;3.30;99.90;;;;;;5026087;28;20081;-70
2023/01/19 11:50:10;;;;;;;10.30;2.30;;;3.40;99.90;;;;;;5022360;28;20080;-70
2023/01/19 11:52:42;;;;;;;7.25;2.25;;;3.40;99.90;;;;;;5026640;28;20484;-70
2023/01/19 11:55:34;;;;;;;9.30;2.28;;;3.50;99.90;;;;;;5006601;28;20128;-70
2023/01/19 11:58:01;;;;;;;9.00;2.65;;;3.50;99.90;;;;;;5010769;28;20058;-69
2023/01/19 12:00:34;;;;;;;6.85;2.05;;;3.60;99.90;;;;;;5021340;28;20053;-71
2023/01/19 12:03:24;;;;;;;26.83;4.70;;;3.80;99.90;;;;;;5010537;28;20060;-69
2023/01/19 12:05:52;;;;;;;12.50;2.60;;;3.70;99.90;;;;;;5023370;28;20049;-68
2023/01/19 12:08:28;;;;;;;12.93;2.80;;;3.80;99.90;;;;;;5008821;28;20044;-69
2023/01/19 12:10:56;;;;;;;9.27;3.58;;;3.90;99.90;;;;;;5008728;28;20051;-71
2023/01/19 12:13:24;;;;;;;12.45;2.58;;;3.80;99.90;;;;;;5024544;28;20500;-70
2023/01/19 12:15:56;;;;;;;10.27;3.22;;;3.90;99.90;;;;;;5018942;28;20642;-69
2023/01/19 12:18:27;;;;;;;11.85;3.25;;;4.00;99.90;;;;;;5025510;28;20429;-70
2023/01/19 12:20:54;;;;;;;8.15;3.53;;;4.10;99.90;;;;;;5017112;28;20539;-72
2023/01/19 12:23:34;;;;;;;11.70;3.10;;;4.10;99.90;;;;;;5023613;28;20110;-69
2023/01/19 12:26:23;;;;;;;15.98;2.63;;;4.10;99.90;;;;;;5024686;28;20056;-69
2023/01/19 12:28:51;;;;;;;15.70;2.80;;;4.20;99.90;;;;;;5007213;28;20054;-70
2023/01/19 12:31:21;;;;;;;15.88;2.92;;;4.20;99.90;;;;;;5015557;28;20041;-68
2023/01/19 12:33:48;;;;;;;5.68;2.00;;;4.20;99.90;;;;;;5025418;28;20049;-70
2023/01/19 12:36:31;;;;;;;12.10;3.80;;;4.20;99.90;;;;;;5017769;28;20054;-69
2023/01/19 12:39:15;;;;;;;11.10;3.03;;;4.20;99.90;;;;;;5025862;28;20089;-69
2023/01/19 12:41:42;;;;;;;7.13;2.15;;;4.20;99.90;;;;;;5010011;28;20042;-70
2023/01/19 12:44:15;;;;;;;18.23;5.25;;;4.20;99.90;;;;;;5023181;28;20787;-70
2023/01/19 12:46:53;;;;;;;30.15;4.43;;;4.30;99.90;;;;;;5016013;28;20038;-70
2023/01/19 12:49:31;;;;;;;8.75;3.45;;;4.30;99.90;;;;;;5024058;28;20500;-68
2023/01/19 12:52:19;;;;;;;11.32;2.83;;;4.20;99.90;;;;;;5013829;28;20133;-70
2023/01/19 12:55:08;;;;;;;15.02;3.47;;;4.20;99.90;;;;;;5006648;28;20471;-70
2023/01/19 12:57:45;;;;;;;15.63;3.63;;;4.20;99.90;;;;;;5024144;28;20265;-70
2023/01/19 13:00:21;;;;;;;37.35;5.10;;;4.30;99.90;;;;;;5010932;28;20049;-70
2023/01/19 13:02:48;;;;;;;19.85;3.70;;;4.40;99.90;;;;;;5014817;28;20054;-70
2023/01/19 13:05:20;;;;;;;20.25;5.57;;;4.50;99.90;;;;;;5025941;28;20050;-69
2023/01/19 13:08:07;;;;;;;12.65;4.80;;;4.90;99.90;;;;;;5013130;28;20108;-70
2023/01/19 13:11:01;;;;;;;14.40;2.80;;;4.50;99.90;;;;;;5026549;28;20085;-70
2023/01/19 13:13:35;;;;;;;8.68;4.47;;;4.60;99.90;;;;;;5021802;28;20060;-71